Time;durP1;ratioP1;P1;durP2;ratioP2;P2;SDS_P1;SDS_P2;PMS_P1;PMS_P2;Temp;Humidity;BMP_temperature;BMP_pressure;BME280_temperature;BME280_humidity;BME280_pressure;Samples;Min_cycle;Max_cycle;Signal;HPM_P1;HPM_P2
2022/10/15 00:00:44;;;;;;;0.80;0.50;;;13.70;99.90;;;13.29;100.00;96553.13;4977852;28;20088;-45
2022/10/15 00:03:10;;;;;;;1.02;0.40;;;13.70;99.90;;;13.34;100.00;96573.13;4979386;28;20644;-46
2022/10/15 00:05:37;;;;;;;1.00;0.50;;;13.70;99.90;;;13.38;100.00;96565.00;4984064;28;20044;-45
2022/10/15 00:08:04;;;;;;;3.72;0.50;;;13.80;99.90;;;13.43;100.00;96569.06;4994498;28;20061;-44
2022/10/15 00:10:30;;;;;;;0.50;0.40;;;13.80;99.90;;;13.42;100.00;96562.06;4989124;28;20116;-46
2022/10/15 00:12:56;;;;;;;0.55;0.40;;;13.80;99.90;;;13.42;100.00;96567.34;4990093;28;20034;-46
2022/10/15 00:15:22;;;;;;;0.40;0.40;;;13.80;99.90;;;13.45;100.00;96564.53;4983444;28;20186;-45
2022/10/15 00:17:47;;;;;;;0.40;0.40;;;13.80;99.90;;;13.41;100.00;96560.38;4989042;28;20038;-47
2022/10/15 00:20:13;;;;;;;1.40;0.22;;;13.80;99.90;;;13.48;100.00;96556.41;4989426;28;20022;-46
2022/10/15 00:22:40;;;;;;;0.38;0.38;;;13.80;99.90;;;13.47;100.00;96559.13;4981968;28;20042;-45
2022/10/15 00:25:06;;;;;;;0.82;0.50;;;13.90;99.90;;;13.47;100.00;96565.28;4990302;28;20076;-45
2022/10/15 00:27:34;;;;;;;1.52;0.68;;;13.90;99.90;;;13.48;100.00;96560.84;4989308;28;20028;-45
2022/10/15 00:30:02;;;;;;;0.30;0.30;;;13.90;99.90;;;13.46;100.00;96563.59;4988757;28;20057;-45
2022/10/15 00:32:28;;;;;;;0.45;0.30;;;13.90;99.90;;;13.46;100.00;96571.53;4985692;28;20034;-45
2022/10/15 00:34:54;;;;;;;0.30;0.30;;;13.80;99.90;;;13.47;100.00;96553.84;4979828;28;20084;-44
2022/10/15 00:37:21;;;;;;;2.17;0.40;;;13.90;99.90;;;13.45;100.00;96556.56;4989635;28;20347;-45
2022/10/15 00:39:46;;;;;;;2.95;0.75;;;13.90;99.90;;;13.49;100.00;96562.53;4987896;28;20037;-45
2022/10/15 00:42:12;;;;;;;0.50;0.50;;;13.90;99.90;;;13.49;100.00;96566.03;4990501;28;20053;-45
2022/10/15 00:44:57;;;;;;;1.17;0.22;;;13.90;99.90;;;13.52;100.00;96565.84;4984590;28;20125;-46
2022/10/15 00:47:37;;;;;;;1.15;0.20;;;13.90;99.90;;;13.54;100.00;96556.00;4990434;28;20030;-46
2022/10/15 00:50:08;;;;;;;0.57;0.30;;;13.90;99.90;;;13.56;100.00;96558.56;4989009;28;20053;-48
2022/10/15 00:52:58;;;;;;;0.20;0.20;;;14.00;99.90;;;13.57;100.00;96554.97;4983548;28;20038;-45
2022/10/15 00:55:27;;;;;;;0.82;0.32;;;13.90;99.90;;;13.57;100.00;96554.97;4990005;28;20033;-46
2022/10/15 00:57:58;;;;;;;0.30;0.30;;;14.00;99.90;;;13.59;100.00;96546.94;4968025;28;20038;-48
2022/10/15 01:00:24;;;;;;;2.35;0.30;;;14.00;99.90;;;13.59;100.00;96546.94;4979444;28;20037;-46
2022/10/15 01:02:49;;;;;;;0.98;0.30;;;14.00;99.90;;;13.44;100.00;96525.75;4975662;28;20038;-45
2022/10/15 01:05:16;;;;;;;0.70;0.20;;;14.00;99.90;;;13.61;100.00;96540.59;4987791;28;20060;-44
2022/10/15 01:07:42;;;;;;;0.35;0.30;;;14.00;99.90;;;13.62;100.00;96541.44;4962537;28;20034;-45
2022/10/15 01:10:09;;;;;;;0.82;0.40;;;14.00;99.90;;;13.64;100.00;96539.53;4990885;28;20158;-45
2022/10/15 01:13:14;;;;;;;0.68;0.20;;;14.00;99.90;;;13.64;100.00;96535.09;4969056;28;20038;-44
2022/10/15 01:16:13;;;;;;;0.30;0.28;;;14.00;99.90;;;13.69;100.00;96529.50;4988448;28;20026;-44
2022/10/15 01:19:01;;;;;;;3.20;0.40;;;14.10;99.90;;;13.68;100.00;96530.47;4969324;28;20034;-45
2022/10/15 01:21:53;;;;;;;1.65;0.32;;;14.10;99.90;;;13.69;100.00;96525.06;4979912;28;20048;-45
2022/10/15 01:24:42;;;;;;;0.30;0.30;;;14.10;99.90;;;13.72;100.00;96524.84;4980659;28;20487;-44
2022/10/15 01:27:33;;;;;;;0.65;0.22;;;14.10;99.90;;;13.72;100.00;96524.00;4982166;28;20471;-45
2022/10/15 01:30:18;;;;;;;1.80;0.40;;;14.10;99.90;;;13.73;100.00;96528.38;4999728;28;20064;-45
2022/10/15 01:32:51;;;;;;;0.60;0.28;;;14.10;99.90;;;13.73;100.00;96523.91;4998656;28;20144;-44
2022/10/15 01:35:47;;;;;;;0.55;0.30;;;14.10;99.90;;;13.73;100.00;96526.56;4999366;28;20580;-45
2022/10/15 01:38:40;;;;;;;0.75;0.22;;;14.10;99.90;;;13.76;100.00;96517.56;4998861;28;20077;-45
2022/10/15 01:41:38;;;;;;;1.75;0.30;;;14.10;99.90;;;13.78;100.00;96520.09;4982461;28;20414;-46
2022/10/15 01:44:12;;;;;;;0.50;0.32;;;14.20;99.90;;;13.77;100.00;96519.28;4979096;28;20383;-47
2022/10/15 01:46:49;;;;;;;0.38;0.30;;;14.20;99.90;;;13.76;100.00;96506.94;4979834;28;20073;-45
2022/10/15 01:49:20;;;;;;;0.30;0.30;;;14.10;99.90;;;13.76;100.00;96509.59;4982745;28;20053;-46
2022/10/15 01:51:49;;;;;;;0.20;0.20;;;14.10;99.90;;;13.73;100.00;96501.88;4988654;28;20034;-45
2022/10/15 01:54:18;;;;;;;0.70;0.30;;;14.10;99.90;;;13.78;100.00;96496.25;4975513;28;20091;-46
2022/10/15 01:56:50;;;;;;;1.08;0.40;;;14.10;99.90;;;13.77;100.00;96503.38;4992850;28;20041;-45
2022/10/15 01:59:21;;;;;;;0.10;0.10;;;14.10;99.90;;;13.79;100.00;96493.50;4988303;28;20026;-45
2022/10/15 02:01:47;;;;;;;0.55;0.30;;;14.10;99.90;;;13.77;100.00;96492.78;4978084;28;20035;-47
2022/10/15 02:04:23;;;;;;;0.30;0.20;;;14.20;99.90;;;13.78;100.00;96502.41;4969562;28;20091;-45
2022/10/15 02:07:02;;;;;;;0.25;0.20;;;14.10;99.90;;;13.85;100.00;96509.00;4991527;28;20065;-46
2022/10/15 02:09:57;;;;;;;0.88;0.22;;;14.10;99.90;;;13.80;100.00;96507.59;4978538;28;20128;-48
2022/10/15 02:13:09;;;;;;;0.68;0.25;;;14.20;99.90;;;13.81;100.00;96512.81;4967897;28;20117;-46
2022/10/15 02:15:46;;;;;;;0.30;0.30;;;14.20;99.90;;;13.83;100.00;96512.72;4988070;28;20072;-46
2022/10/15 02:18:50;;;;;;;0.52;0.30;;;14.20;99.90;;;13.84;100.00;96509.97;4988564;28;20036;-45
2022/10/15 02:21:31;;;;;;;0.38;0.30;;;14.20;99.90;;;13.83;100.00;96495.00;4972858;28;20026;-44
2022/10/15 02:24:57;;;;;;;2.05;0.40;;;14.20;99.90;;;13.84;100.00;96506.50;4999765;28;20060;-45
2022/10/15 02:27:25;;;;;;;0.20;0.20;;;14.20;99.90;;;13.83;100.00;96505.63;4985223;28;20034;-45
2022/10/15 02:29:52;;;;;;;0.30;0.30;;;14.20;99.90;;;13.83;100.00;96516.22;4974896;28;20041;-46
2022/10/15 02:32:20;;;;;;;0.45;0.20;;;14.20;99.90;;;13.84;100.00;96519.75;4977325;28;20080;-44
2022/10/15 02:34:47;;;;;;;0.38;0.25;;;14.20;99.90;;;13.82;100.00;96522.47;4993705;28;20113;-44
2022/10/15 02:37:14;;;;;;;2.30;0.20;;;14.20;99.90;;;13.79;100.00;96508.56;4990273;28;20525;-45
2022/10/15 02:39:40;;;;;;;0.63;0.30;;;14.20;99.90;;;13.85;100.00;96516.97;4977948;28;20026;-45
2022/10/15 02:42:05;;;;;;;0.20;0.20;;;14.20;99.90;;;13.86;100.00;96523.97;4985468;28;20038;-47
2022/10/15 02:44:31;;;;;;;0.45;0.20;;;14.20;99.90;;;13.87;100.00;96522.16;4993194;28;20498;-45
2022/10/15 02:46:58;;;;;;;0.47;0.30;;;14.20;99.90;;;13.88;100.00;96524.72;4990009;28;20073;-45
2022/10/15 02:49:24;;;;;;;0.80;0.20;;;14.20;99.90;;;13.86;100.00;96525.78;4987896;28;20290;-44
2022/10/15 02:51:50;;;;;;;1.77;0.40;;;14.20;99.90;;;13.88;100.00;96526.53;4992541;28;20030;-45
2022/10/15 02:54:16;;;;;;;0.45;0.30;;;14.30;99.90;;;13.89;100.00;96526.44;4987842;28;20034;-45
2022/10/15 02:56:41;;;;;;;1.60;0.50;;;14.30;99.90;;;13.86;100.00;96520.47;4986887;28;20034;-47
2022/10/15 02:59:07;;;;;;;0.70;0.35;;;14.30;99.90;;;13.90;100.00;96527.28;4984352;28;20478;-46
2022/10/15 03:01:34;;;;;;;0.95;0.40;;;14.30;99.90;;;13.93;100.00;96525.28;4988395;28;20457;-46
2022/10/15 03:04:00;;;;;;;0.25;0.22;;;14.30;99.90;;;13.94;100.00;96534.06;4986206;28;20022;-46
2022/10/15 03:06:26;;;;;;;2.30;0.32;;;14.30;99.90;;;13.93;100.00;96530.59;4955463;28;20105;-47
2022/10/15 03:08:52;;;;;;;2.72;0.30;;;14.30;99.90;;;13.95;100.00;96535.78;4984682;28;20038;-45
2022/10/15 03:11:17;;;;;;;0.90;0.40;;;14.30;99.90;;;13.95;100.00;96533.16;4989826;28;23062;-46
2022/10/15 03:13:43;;;;;;;1.27;0.22;;;14.30;99.90;;;13.98;100.00;96540.03;4983803;28;20117;-45
2022/10/15 03:16:11;;;;;;;0.63;0.38;;;14.30;99.90;;;14.01;100.00;96537.19;4985006;28;20513;-44
2022/10/15 03:18:37;;;;;;;0.90;0.38;;;14.30;99.90;;;13.88;100.00;96518.59;4987617;28;20641;-46
2022/10/15 03:21:03;;;;;;;0.50;0.40;;;14.40;99.90;;;14.04;100.00;96531.69;4986190;28;20060;-45
2022/10/15 03:23:29;;;;;;;0.98;0.30;;;14.40;99.90;;;14.02;100.00;96531.78;4991922;28;20029;-45
2022/10/15 03:25:55;;;;;;;0.45;0.10;;;14.40;99.90;;;14.03;100.00;96527.34;4983884;28;20241;-46
2022/10/15 03:28:21;;;;;;;0.80;0.40;;;14.40;99.90;;;14.02;100.00;96533.59;4988467;28;20030;-46
2022/10/15 03:30:47;;;;;;;0.52;0.15;;;14.40;99.90;;;14.02;100.00;96531.78;4970995;28;20453;-48
2022/10/15 03:33:13;;;;;;;1.73;0.28;;;14.40;99.90;;;14.02;100.00;96530.94;5029004;22;20056;-56
2022/10/15 03:35:39;;;;;;;2.05;0.22;;;14.40;99.90;;;14.05;100.00;96536.03;5035152;28;20047;-55
2022/10/15 03:38:05;;;;;;;1.30;0.20;;;14.40;99.90;;;14.05;100.00;96539.56;5030261;28;20063;-54
2022/10/15 03:40:32;;;;;;;0.10;0.10;;;14.40;99.90;;;14.01;100.00;96538.03;5035143;28;20059;-55
2022/10/15 03:42:58;;;;;;;0.52;0.10;;;14.40;99.90;;;14.06;100.00;96540.41;5035110;28;20112;-55
2022/10/15 03:45:24;;;;;;;1.55;0.30;;;14.50;99.90;;;14.08;100.00;96543.78;5031280;28;20067;-54
2022/10/15 03:47:50;;;;;;;0.20;0.20;;;14.50;99.90;;;14.08;100.00;96551.75;5032575;28;20130;-57
2022/10/15 03:50:16;;;;;;;0.17;0.17;;;14.50;99.90;;;14.10;100.00;96553.38;5027064;28;20078;-56
2022/10/15 03:52:42;;;;;;;1.80;0.20;;;14.50;99.90;;;14.12;100.00;96558.56;5033721;28;20041;-54
2022/10/15 03:55:09;;;;;;;0.98;0.30;;;14.50;99.90;;;14.08;100.00;96555.25;5028745;28;20036;-56
2022/10/15 03:57:37;;;;;;;0.80;0.20;;;14.50;99.90;;;14.13;100.00;96568.22;5036832;28;20138;-54
2022/10/15 04:00:06;;;;;;;0.20;0.10;;;14.50;99.90;;;14.13;100.00;96568.22;5027696;28;20024;-56
2022/10/15 04:02:32;;;;;;;2.33;0.20;;;14.50;99.90;;;14.15;100.00;96573.44;5032031;28;21149;-54
2022/10/15 04:04:57;;;;;;;0.10;0.10;;;14.50;99.90;;;14.16;100.00;96583.06;5032722;28;20513;-55
2022/10/15 04:07:23;;;;;;;0.10;0.10;;;14.50;99.90;;;14.13;100.00;96563.75;5028307;28;20065;-55
2022/10/15 04:09:49;;;;;;;1.25;0.30;;;14.50;99.90;;;14.15;100.00;96563.66;5036394;28;20384;-55
2022/10/15 04:12:16;;;;;;;0.20;0.10;;;14.50;99.90;;;14.15;100.00;96571.63;5031177;28;20056;-54
2022/10/15 04:14:42;;;;;;;0.70;0.38;;;14.50;99.90;;;14.15;100.00;96570.78;5029301;28;20128;-54
2022/10/15 04:17:07;;;;;;;0.90;0.20;;;14.50;99.90;;;14.13;100.00;96573.53;5031686;28;20104;-55
2022/10/15 04:19:33;;;;;;;1.30;0.20;;;14.50;99.90;;;14.12;100.00;96571.81;5031298;28;20091;-56
2022/10/15 04:21:59;;;;;;;2.15;0.20;;;14.50;99.90;;;14.15;100.00;96576.06;5033854;28;20524;-56
2022/10/15 04:24:25;;;;;;;0.70;0.20;;;14.50;99.90;;;14.13;100.00;96578.81;5034490;28;20393;-54
2022/10/15 04:26:51;;;;;;;0.90;0.20;;;14.50;99.90;;;14.15;100.00;96592.00;5035480;28;20584;-54
2022/10/15 04:29:17;;;;;;;0.25;0.10;;;14.50;99.90;;;14.12;100.00;96588.59;5033656;28;20405;-53
2022/10/15 04:31:43;;;;;;;0.32;0.20;;;14.50;99.90;;;14.12;100.00;96590.38;5035226;28;20021;-55
2022/10/15 04:34:09;;;;;;;1.73;0.25;;;14.50;99.90;;;14.12;100.00;96593.00;5035106;28;20074;-53
2022/10/15 04:36:35;;;;;;;1.55;0.20;;;14.50;99.90;;;14.10;100.00;96590.50;5035206;28;20363;-55
2022/10/15 04:39:01;;;;;;;0.73;0.15;;;14.50;99.90;;;14.11;100.00;96588.69;5028602;28;20124;-55
2022/10/15 04:41:27;;;;;;;0.10;0.10;;;14.50;99.90;;;14.09;100.00;96591.44;5035787;28;20031;-55
2022/10/15 04:43:54;;;;;;;0.73;0.15;;;14.50;99.90;;;14.09;100.00;96593.25;5032566;28;20037;-54
2022/10/15 04:46:21;;;;;;;1.15;0.20;;;14.40;99.90;;;14.08;100.00;96594.16;5033277;28;20040;-53
2022/10/15 04:48:47;;;;;;;0.17;0.17;;;14.50;99.90;;;14.07;100.00;96593.34;5037582;28;20036;-52
2022/10/15 04:51:16;;;;;;;0.10;0.10;;;14.50;99.90;;;14.07;100.00;96587.19;5034863;28;20036;-54
2022/10/15 04:53:42;;;;;;;0.10;0.10;;;14.40;99.90;;;14.06;100.00;96596.91;5033122;28;20052;-53
2022/10/15 04:56:14;;;;;;;0.17;0.17;;;14.40;99.90;;;14.07;100.00;96605.75;5029352;28;20069;-54
2022/10/15 04:58:41;;;;;;;0.20;0.20;;;14.40;99.90;;;14.06;100.00;96604.03;5029394;28;20713;-55
2022/10/15 05:01:13;;;;;;;0.17;0.17;;;14.40;99.90;;;14.07;100.00;96611.03;5033106;28;20032;-53
2022/10/15 05:03:42;;;;;;;0.30;0.10;;;14.40;99.90;;;14.06;100.00;96614.63;5035055;28;20039;-50
2022/10/15 05:06:12;;;;;;;0.22;0.17;;;14.40;99.90;;;14.04;100.00;96605.94;5028664;28;20049;-54
2022/10/15 05:08:42;;;;;;;2.30;0.17;;;14.40;99.90;;;14.03;100.00;96605.09;5024095;28;20033;-54
2022/10/15 05:11:15;;;;;;;0.20;0.20;;;14.40;99.90;;;14.03;100.00;96609.50;5025711;28;20138;-59
2022/10/15 05:13:42;;;;;;;0.10;0.10;;;14.40;99.90;;;13.97;100.00;96602.81;5037214;28;20029;-62
2022/10/15 05:16:28;;;;;;;0.20;0.20;;;14.40;99.90;;;13.98;100.00;96612.47;5033953;28;20434;-58
2022/10/15 05:19:04;;;;;;;0.28;0.10;;;14.40;99.90;;;13.97;100.00;96617.88;5028326;28;20036;-58
2022/10/15 05:21:31;;;;;;;0.00;0.00;;;14.30;99.90;;;13.96;100.00;96624.09;5034428;28;20048;-57
2022/10/15 05:23:58;;;;;;;0.10;0.10;;;14.30;99.90;;;13.93;100.00;96628.66;5029699;28;20057;-57
2022/10/15 05:26:26;;;;;;;0.08;0.08;;;14.30;99.90;;;13.96;100.00;96632.91;5033063;28;20028;-50
2022/10/15 05:28:52;;;;;;;0.03;0.03;;;14.30;99.90;;;13.97;100.00;96641.72;5035171;28;20036;-48
2022/10/15 05:31:20;;;;;;;0.10;0.10;;;14.30;99.90;;;13.98;100.00;96646.06;5039668;28;20044;-50
2022/10/15 05:33:51;;;;;;;0.20;0.10;;;14.30;99.90;;;13.98;100.00;96638.09;5039272;28;20120;-50
2022/10/15 05:36:24;;;;;;;0.20;0.20;;;14.30;99.90;;;13.98;100.00;96640.75;5034405;28;20034;-51
2022/10/15 05:38:54;;;;;;;0.73;0.30;;;14.30;99.90;;;13.98;100.00;96656.66;5038128;28;20037;-55
2022/10/15 05:41:20;;;;;;;0.10;0.05;;;14.30;99.90;;;13.98;100.00;96648.72;5036846;28;20554;-55
2022/10/15 05:43:48;;;;;;;0.10;0.10;;;14.30;99.90;;;14.00;100.00;96660.06;5035671;28;20121;-50
2022/10/15 05:46:14;;;;;;;0.10;0.10;;;14.40;99.90;;;14.02;100.00;96666.16;5030219;28;20728;-53
2022/10/15 05:48:40;;;;;;;1.48;0.20;;;14.40;99.90;;;14.02;100.00;96660.84;5039591;28;20029;-50
2022/10/15 05:51:10;;;;;;;0.95;0.25;;;14.30;99.90;;;13.99;100.00;96648.63;5030691;28;20037;-51
2022/10/15 05:53:36;;;;;;;0.70;0.25;;;14.30;99.90;;;14.00;100.00;96653.00;5033181;28;20112;-53
2022/10/15 05:56:04;;;;;;;0.60;0.25;;;14.40;99.90;;;13.98;100.00;96654.00;5030317;28;20297;-49
2022/10/15 05:58:32;;;;;;;1.08;0.20;;;14.30;99.90;;;13.98;100.00;96657.53;5035122;28;20029;-51
2022/10/15 06:01:01;;;;;;;0.28;0.28;;;14.30;99.90;;;13.98;100.00;96664.63;5031497;28;20521;-53
2022/10/15 06:03:27;;;;;;;0.10;0.10;;;14.30;99.90;;;13.97;100.00;96660.28;5046615;28;20055;-51
2022/10/15 06:05:53;;;;;;;3.38;0.30;;;14.30;99.90;;;13.96;100.00;96667.34;5035151;28;20485;-52
2022/10/15 06:08:20;;;;;;;0.90;0.20;;;14.30;99.90;;;14.01;100.00;96669.75;5038057;28;20126;-51
2022/10/15 06:10:46;;;;;;;2.42;0.30;;;14.30;99.90;;;13.96;100.00;96669.16;5028802;28;20036;-52
2022/10/15 06:13:13;;;;;;;0.30;0.30;;;14.30;99.90;;;13.99;100.00;96688.38;5033696;28;20052;-50
2022/10/15 06:15:40;;;;;;;0.52;0.35;;;14.30;99.90;;;14.01;100.00;96688.28;5039347;28;20036;-50
2022/10/15 06:18:06;;;;;;;0.70;0.30;;;14.30;99.90;;;14.01;100.00;96688.28;5034780;28;20025;-51
2022/10/15 06:20:32;;;;;;;0.60;0.30;;;14.40;99.90;;;14.00;100.00;96694.53;5030259;28;20022;-52
2022/10/15 06:22:59;;;;;;;0.20;0.20;;;14.40;99.90;;;14.01;100.00;96690.94;5035431;28;20746;-50
2022/10/15 06:25:26;;;;;;;0.47;0.20;;;14.40;99.90;;;14.00;100.00;96698.06;5034288;28;20033;-50
2022/10/15 06:27:52;;;;;;;0.50;0.30;;;14.40;99.90;;;14.01;100.00;96706.84;5038414;28;20444;-52
2022/10/15 06:30:19;;;;;;;0.52;0.20;;;14.40;99.90;;;14.02;100.00;96708.56;5033164;28;20033;-52
2022/10/15 06:32:49;;;;;;;1.48;0.38;;;14.40;99.90;;;14.01;100.00;96713.00;5034108;28;20036;-49
2022/10/15 06:35:17;;;;;;;0.40;0.40;;;14.40;99.90;;;14.05;100.00;96713.66;5033610;28;20036;-52
2022/10/15 06:37:42;;;;;;;1.00;0.30;;;14.40;99.90;;;14.06;100.00;96718.88;5039662;28;20040;-49
2022/10/15 06:40:09;;;;;;;0.38;0.30;;;14.50;99.90;;;14.08;100.00;96724.94;5032886;28;20751;-51
2022/10/15 06:42:35;;;;;;;0.90;0.40;;;14.40;99.90;;;14.08;100.00;96735.53;5028930;28;20036;-52
2022/10/15 06:45:01;;;;;;;0.20;0.20;;;14.50;99.90;;;14.11;100.00;96737.16;5037214;28;20338;-53
2022/10/15 06:47:26;;;;;;;0.75;0.40;;;14.50;99.90;;;14.14;100.00;96736.97;5033819;28;20036;-49
2022/10/15 06:49:52;;;;;;;0.95;0.50;;;14.50;99.90;;;14.13;100.00;96736.09;5028796;28;20040;-52
2022/10/15 06:52:19;;;;;;;0.73;0.40;;;14.50;99.90;;;14.17;100.00;96739.41;5025806;28;20147;-51
2022/10/15 06:54:45;;;;;;;0.22;0.22;;;14.50;99.90;;;14.15;100.00;96736.00;5023729;28;20037;-50
2022/10/15 06:57:11;;;;;;;0.65;0.20;;;14.50;99.90;;;14.23;100.00;96751.44;5029328;28;21155;-49
2022/10/15 06:59:36;;;;;;;1.45;0.60;;;14.60;99.90;;;14.22;100.00;96753.25;5035276;28;20040;-50
2022/10/15 07:02:02;;;;;;;0.20;0.20;;;14.60;99.90;;;14.27;100.00;96751.16;5030409;28;20057;-49
2022/10/15 07:04:28;;;;;;;0.30;0.30;;;14.60;99.90;;;14.30;100.00;96753.63;5033774;28;20437;-49
2022/10/15 07:06:53;;;;;;;0.75;0.30;;;14.70;99.90;;;14.35;100.00;96769.25;5033718;28;20548;-52
2022/10/15 07:09:19;;;;;;;0.30;0.28;;;14.70;99.90;;;14.30;100.00;96766.91;5022979;28;20268;-52
2022/10/15 07:11:45;;;;;;;1.08;0.30;;;14.70;99.90;;;14.32;100.00;96770.31;5028987;28;20505;-51
2022/10/15 07:14:11;;;;;;;0.50;0.40;;;14.70;99.90;;;14.32;100.00;96775.59;5032582;28;20502;-51
2022/10/15 07:16:38;;;;;;;0.52;0.40;;;14.70;99.90;;;14.32;100.00;96777.41;5030352;28;20056;-50
2022/10/15 07:19:05;;;;;;;0.70;0.40;;;14.70;99.90;;;14.33;100.00;96785.25;5033958;28;20460;-51
2022/10/15 07:21:30;;;;;;;1.08;0.40;;;14.70;99.90;;;14.36;100.00;96783.38;5032536;28;20098;-50
2022/10/15 07:23:57;;;;;;;0.40;0.40;;;14.70;99.90;;;14.39;100.00;96784.03;5027628;28;20033;-50
2022/10/15 07:26:23;;;;;;;0.43;0.40;;;14.70;99.90;;;14.43;100.00;96782.06;5036490;28;20147;-50
2022/10/15 07:28:49;;;;;;;2.25;0.55;;;14.80;99.90;;;14.48;100.00;96790.56;5031579;28;20308;-51
2022/10/15 07:31:14;;;;;;;0.77;0.60;;;14.90;99.90;;;14.54;100.00;96790.19;5033717;28;20055;-52
2022/10/15 07:33:42;;;;;;;0.43;0.40;;;14.90;99.90;;;14.68;100.00;96798.16;5022996;28;20041;-55
2022/10/15 07:36:11;;;;;;;0.40;0.32;;;15.00;99.90;;;14.80;100.00;96791.22;5031709;28;20039;-50
2022/10/15 07:38:39;;;;;;;0.32;0.30;;;15.20;99.90;;;14.95;100.00;96796.50;5038123;28;20040;-53
2022/10/15 07:41:06;;;;;;;0.95;0.50;;;15.30;99.90;;;14.99;100.00;96793.56;5040429;28;20028;-51
2022/10/15 07:43:33;;;;;;;1.75;0.50;;;15.40;99.90;;;15.13;100.00;96802.41;5035503;28;20122;-49
2022/10/15 07:46:00;;;;;;;1.48;0.52;;;15.60;99.90;;;15.21;100.00;96806.28;5033665;28;20211;-50
2022/10/15 07:48:25;;;;;;;1.23;0.88;;;15.60;99.90;;;15.30;100.00;96804.84;5035356;28;20075;-50
2022/10/15 07:50:56;;;;;;;1.83;0.80;;;15.70;99.90;;;15.38;100.00;96806.97;5028266;28;20562;-51
2022/10/15 07:53:22;;;;;;;1.13;0.70;;;15.80;99.90;;;15.38;100.00;96806.97;5030241;28;20041;-52
2022/10/15 07:55:47;;;;;;;0.50;0.43;;;15.80;99.90;;;15.36;100.00;96809.75;5022403;28;20059;-51
2022/10/15 07:58:13;;;;;;;0.60;0.60;;;15.80;99.90;;;15.36;100.00;96811.53;5024724;28;20040;-55
2022/10/15 08:00:39;;;;;;;0.65;0.65;;;15.80;99.90;;;15.36;100.00;96815.06;5030781;28;21912;-50
2022/10/15 08:03:04;;;;;;;0.50;0.50;;;15.70;99.90;;;15.37;100.00;96822.06;5044521;28;20036;-52
2022/10/15 08:05:30;;;;;;;0.65;0.50;;;15.70;99.90;;;15.34;100.00;96819.59;5038020;28;20033;-51
2022/10/15 08:07:56;;;;;;;1.17;0.70;;;15.70;99.90;;;15.25;100.00;96821.09;5031816;28;20076;-49
2022/10/15 08:10:22;;;;;;;1.77;0.90;;;15.70;99.90;;;15.30;100.00;96826.09;5034582;28;20476;-53
2022/10/15 08:12:47;;;;;;;0.90;0.70;;;15.70;99.90;;;15.31;100.00;96827.81;5028852;28;20521;-53
2022/10/15 08:15:13;;;;;;;2.40;0.80;;;15.70;99.90;;;15.30;100.00;96826.09;5032299;28;20346;-48
2022/10/15 08:17:39;;;;;;;1.98;0.70;;;15.70;99.90;;;15.22;100.00;96821.28;5037436;28;20102;-54
2022/10/15 08:20:05;;;;;;;0.88;0.55;;;15.70;99.90;;;15.26;100.00;96819.28;5040520;28;20051;-52
2022/10/15 08:22:32;;;;;;;0.52;0.52;;;15.70;99.90;;;15.35;100.00;96818.69;5040224;28;20024;-49
2022/10/15 08:24:58;;;;;;;2.72;0.70;;;15.70;99.90;;;15.48;100.00;96809.91;5036037;28;20691;-50
2022/10/15 08:27:24;;;;;;;2.70;0.70;;;15.80;99.90;;;15.61;100.00;96809.00;5033861;28;20043;-52
2022/10/15 08:29:50;;;;;;;1.67;0.50;;;16.00;99.90;;;15.73;100.00;96817.09;5034435;28;20783;-50
2022/10/15 08:32:16;;;;;;;2.05;0.60;;;16.10;99.90;;;15.90;100.00;96826.59;5022725;28;20043;-52
2022/10/15 08:34:42;;;;;;;3.17;1.00;;;16.30;99.90;;;16.08;100.00;96814.75;5025706;28;20049;-53
2022/10/15 08:37:07;;;;;;;0.75;0.50;;;16.50;99.90;;;16.19;100.00;96814.84;5029361;28;20112;-49
2022/10/15 08:39:34;;;;;;;2.15;0.60;;;16.60;99.90;;;16.33;100.00;96815.69;5038866;28;20143;-53
2022/10/15 08:42:03;;;;;;;1.45;0.47;;;16.70;99.90;;;16.45;100.00;96820.16;5025650;28;20575;-49
2022/10/15 08:44:39;;;;;;;1.77;0.75;;;16.90;99.90;;;16.54;100.00;96822.19;5026362;28;20826;-52
2022/10/15 08:47:16;;;;;;;1.00;0.40;;;16.90;99.90;;;16.62;100.00;96837.63;5038441;28;20032;-51
2022/10/15 08:49:52;;;;;;;0.50;0.40;;;17.00;99.90;;;16.63;100.00;96831.31;5025489;28;20328;-55
2022/10/15 08:52:34;;;;;;;0.93;0.50;;;17.00;99.90;;;16.58;100.00;96834.34;5020745;28;20029;-55
2022/10/15 08:55:00;;;;;;;2.35;0.60;;;16.90;99.90;;;16.47;100.00;96836.88;5035091;28;20056;-54
2022/10/15 08:57:58;;;;;;;1.42;0.55;;;16.90;99.90;;;16.39;100.00;96833.91;5033023;28;20738;-52
2022/10/15 09:00:30;;;;;;;3.15;0.47;;;16.80;99.90;;;16.39;100.00;96834.75;5039373;28;20167;-53
2022/10/15 09:03:51;;;;;;;0.52;0.50;;;16.80;99.90;;;16.36;100.00;96840.28;5021613;28;20029;-52
2022/10/15 09:06:40;;;;;;;2.28;0.57;;;16.80;99.90;;;16.26;100.00;96841.91;5041047;28;20095;-54
2022/10/15 09:09:10;;;;;;;0.20;0.20;;;16.70;99.90;;;16.30;100.00;96832.72;5036930;28;20123;-52
2022/10/15 09:12:00;;;;;;;0.85;0.52;;;16.60;99.90;;;16.27;100.00;96832.94;5033577;28;20071;-53
2022/10/15 09:14:32;;;;;;;0.93;0.52;;;16.70;99.90;;;16.20;100.00;96832.53;5029596;28;20809;-53
2022/10/15 09:17:03;;;;;;;0.25;0.25;;;16.60;99.90;;;16.22;100.00;96838.59;5036979;28;20534;-50
2022/10/15 09:19:30;;;;;;;1.38;0.55;;;16.60;99.90;;;16.26;100.00;96841.03;5033439;28;21230;-51
2022/10/15 09:21:59;;;;;;;1.83;0.60;;;16.60;99.90;;;16.33;100.00;96843.16;5037534;28;20030;-52
2022/10/15 09:24:31;;;;;;;1.08;0.40;;;16.70;99.90;;;16.45;100.00;96843.28;5025856;28;20094;-51
2022/10/15 09:27:15;;;;;;;0.47;0.43;;;16.70;99.90;;;16.53;100.00;96841.78;5026780;28;20139;-53
2022/10/15 09:30:04;;;;;;;1.15;0.50;;;16.90;99.90;;;16.56;100.00;96854.88;5034051;28;20105;-53
2022/10/15 09:35:14;;;;;;;0.52;0.32;;;16.90;99.90;;;16.54;100.00;96854.13;5016250;28;20065;-43
2022/10/15 09:37:49;;;;;;;0.70;0.35;;;16.90;99.90;;;16.58;100.00;96854.75;5007446;28;20041;-44
2022/10/15 09:40:53;;;;;;;0.52;0.40;;;17.00;99.90;;;16.64;100.00;96851.69;5008878;28;20037;-44
2022/10/15 09:43:29;;;;;;;1.25;0.40;;;17.00;99.90;;;16.77;100.00;96863.16;4971817;28;20057;-43
2022/10/15 09:45:56;;;;;;;0.65;0.35;;;17.10;99.90;;;16.94;100.00;96869.13;4994142;28;20056;-43
2022/10/15 09:48:24;;;;;;;1.05;0.35;;;17.30;99.90;;;17.08;100.00;96873.47;5013576;28;20571;-47
2022/10/15 09:50:59;;;;;;;1.42;0.45;;;17.40;99.90;;;17.22;100.00;96865.34;5015455;28;20506;-43
2022/10/15 09:54:00;;;;;;;1.38;0.38;;;17.50;99.90;;;17.26;100.00;96868.63;5008108;28;20056;-46
2022/10/15 09:56:36;;;;;;;0.50;0.20;;;17.60;99.90;;;17.24;100.00;96863.41;5012071;28;20105;-44
2022/10/15 09:59:02;;;;;;;1.10;0.20;;;17.60;99.90;;;17.30;100.00;96867.44;5005776;28;20040;-44
2022/10/15 10:01:31;;;;;;;2.38;0.30;;;17.60;99.90;;;17.36;100.00;96875.84;5013488;28;20049;-45
2022/10/15 10:04:19;;;;;;;1.77;0.40;;;17.80;99.90;;;17.61;100.00;96883.88;5007196;28;20922;-44
2022/10/15 10:06:49;;;;;;;0.85;0.30;;;18.00;99.90;;;17.68;100.00;96877.97;5014058;28;20087;-45
2022/10/15 10:09:38;;;;;;;4.28;0.50;;;18.10;99.90;;;17.91;100.00;96875.47;5012882;28;20045;-47
2022/10/15 10:12:17;;;;;;;1.23;0.35;;;18.30;99.90;;;18.08;100.00;96874.19;5009698;28;20033;-45
2022/10/15 10:15:36;;;;;;;0.63;0.30;;;18.50;99.90;;;18.25;100.00;96883.56;4990166;28;20233;-45
2022/10/15 10:18:06;;;;;;;0.88;0.32;;;18.60;99.90;;;18.43;100.00;96873.28;4959838;28;20049;-45
2022/10/15 10:20:33;;;;;;;0.40;0.35;;;18.90;99.90;;;18.66;100.00;96887.53;5007287;28;20060;-46
2022/10/15 10:23:08;;;;;;;2.72;0.50;;;19.10;99.90;;;18.73;100.00;96902.09;5006227;28;20025;-45
2022/10/15 10:25:43;;;;;;;0.38;0.30;;;19.20;99.90;;;18.70;100.00;96897.03;5010377;28;20111;-46
2022/10/15 10:28:10;;;;;;;0.30;0.30;;;19.10;99.90;;;18.66;100.00;96892.88;5010544;28;21898;-44
2022/10/15 10:30:59;;;;;;;0.55;0.40;;;19.10;99.90;;;18.60;100.00;96894.19;5000194;28;20521;-45